createdAt,value
2023-03-29T00:00:35.330Z,0.00
2023-03-29T00:01:36.539Z,0.00
2023-03-29T00:02:36.996Z,0.00
2023-03-29T00:03:37.923Z,0.00
2023-03-29T00:04:38.946Z,0.00
2023-03-29T00:05:39.374Z,0.00
2023-03-29T00:06:40.252Z,0.00
2023-03-29T00:07:41.159Z,0.00
2023-03-29T00:08:42.017Z,0.00
2023-03-29T00:09:42.923Z,0.00
2023-03-29T00:10:43.782Z,0.00
2023-03-29T00:11:44.666Z,0.00
2023-03-29T00:12:45.563Z,0.00
2023-03-29T00:13:46.437Z,0.00
2023-03-29T00:14:47.296Z,0.00
2023-03-29T00:15:48.191Z,0.00
2023-03-29T00:16:49.187Z,0.00
2023-03-29T00:17:50.103Z,0.00
2023-03-29T00:18:50.931Z,0.00
2023-03-29T00:19:51.811Z,0.00
2023-03-29T00:20:52.694Z,0.00
2023-03-29T00:21:53.578Z,0.00
2023-03-29T00:22:54.451Z,0.00
2023-03-29T00:23:55.329Z,0.00
2023-03-29T00:24:56.222Z,0.00
2023-03-29T00:25:57.106Z,0.00
2023-03-29T00:26:57.978Z,0.00
2023-03-29T00:27:58.857Z,0.00
2023-03-29T00:28:59.734Z,0.00
2023-03-29T00:30:00.632Z,0.00
2023-03-29T00:31:01.740Z,0.00
2023-03-29T00:32:02.189Z,0.00
2023-03-29T00:33:03.125Z,0.00
2023-03-29T00:34:03.954Z,0.00
2023-03-29T00:35:04.834Z,0.00
2023-03-29T00:36:05.743Z,0.00
2023-03-29T00:37:06.610Z,0.00
2023-03-29T00:38:07.499Z,0.00
2023-03-29T00:39:08.376Z,0.00
2023-03-29T00:40:09.283Z,0.00
2023-03-29T00:41:10.141Z,0.00
2023-03-29T00:42:11.026Z,0.00
2023-03-29T00:43:11.901Z,0.00
2023-03-29T00:44:12.785Z,0.00
2023-03-29T00:45:13.669Z,0.00
2023-03-29T00:46:14.579Z,0.00
2023-03-29T00:47:15.430Z,0.00
2023-03-29T00:48:16.326Z,0.00
2023-03-29T00:49:17.193Z,0.00
2023-03-29T00:50:18.080Z,0.00
2023-03-29T00:51:18.962Z,0.00
2023-03-29T00:52:19.836Z,0.00
2023-03-29T00:53:20.720Z,0.00
2023-03-29T00:54:21.601Z,0.00
2023-03-29T00:55:22.512Z,0.00
2023-03-29T00:56:23.366Z,0.00
2023-03-29T00:57:25.284Z,0.00
2023-03-29T00:58:25.061Z,0.00
2023-03-29T00:59:25.925Z,0.00
2023-03-29T01:00:26.819Z,0.00
2023-03-29T01:01:27.712Z,0.00
2023-03-29T01:02:28.626Z,0.00
2023-03-29T01:03:29.643Z,0.00
2023-03-29T01:04:30.025Z,0.00
2023-03-29T01:05:30.922Z,0.00
2023-03-29T01:06:31.836Z,0.00
2023-03-29T01:07:32.704Z,0.00
2023-03-29T01:08:33.605Z,0.00
2023-03-29T01:09:34.472Z,0.00
2023-03-29T01:10:35.370Z,0.00
2023-03-29T01:11:36.293Z,0.00
2023-03-29T01:12:37.171Z,0.00
2023-03-29T01:13:38.035Z,0.00
2023-03-29T01:14:38.919Z,0.00
2023-03-29T01:15:39.806Z,0.00
2023-03-29T01:16:40.768Z,0.00
2023-03-29T01:17:41.690Z,0.00
2023-03-29T01:18:42.595Z,0.00
2023-03-29T01:19:43.408Z,0.00
2023-03-29T01:20:44.309Z,0.00
2023-03-29T01:21:45.174Z,0.00
2023-03-29T01:22:46.050Z,0.00
2023-03-29T01:23:46.929Z,0.00
2023-03-29T01:24:47.819Z,0.00
2023-03-29T01:25:48.722Z,0.00
2023-03-29T01:26:49.579Z,0.00
2023-03-29T01:27:50.451Z,0.00
2023-03-29T01:28:51.333Z,0.00
2023-03-29T01:29:52.215Z,0.00
2023-03-29T01:30:53.112Z,0.00
2023-03-29T01:31:54.103Z,0.00
2023-03-29T01:32:55.002Z,0.00
2023-03-29T01:33:55.838Z,0.00
2023-03-29T01:34:56.736Z,0.00
2023-03-29T01:35:57.752Z,0.00
2023-03-29T01:36:58.123Z,0.00
2023-03-29T01:37:59.004Z,0.00
2023-03-29T01:38:59.893Z,0.00
2023-03-29T01:40:00.768Z,0.00
2023-03-29T01:41:01.833Z,0.00
2023-03-29T01:42:02.242Z,0.00
2023-03-29T01:43:03.154Z,0.00
2023-03-29T01:44:04.054Z,0.00
2023-03-29T01:45:04.899Z,0.00
2023-03-29T01:46:05.828Z,0.00
2023-03-29T01:47:06.694Z,0.00
2023-03-29T01:48:07.583Z,0.00
2023-03-29T01:49:08.458Z,0.00
2023-03-29T01:50:09.332Z,0.00
2023-03-29T01:51:10.223Z,0.00
2023-03-29T01:52:11.106Z,0.00
2023-03-29T01:53:11.986Z,0.00
2023-03-29T01:54:12.867Z,0.00
2023-03-29T01:55:13.757Z,0.00
2023-03-29T01:56:14.667Z,0.00
2023-03-29T01:57:15.553Z,0.00
2023-03-29T01:58:16.406Z,0.00
2023-03-29T01:59:17.285Z,0.00
2023-03-29T02:00:18.158Z,0.00
2023-03-29T02:01:19.080Z,0.00
2023-03-29T02:02:19.993Z,0.00
2023-03-29T02:03:20.925Z,0.00
2023-03-29T02:04:21.410Z,0.00
2023-03-29T02:05:22.294Z,0.00
2023-03-29T02:06:23.185Z,0.00
2023-03-29T02:07:24.065Z,0.00
2023-03-29T02:08:24.944Z,0.00
2023-03-29T02:09:25.829Z,0.00
2023-03-29T02:10:26.700Z,0.00
2023-03-29T02:11:27.615Z,0.00
2023-03-29T02:12:28.486Z,0.00
2023-03-29T02:13:29.372Z,0.00
2023-03-29T02:14:30.252Z,0.00
2023-03-29T02:15:31.177Z,0.00
2023-03-29T02:16:32.016Z,0.00
2023-03-29T02:17:32.923Z,0.00
2023-03-29T02:18:33.771Z,0.00
2023-03-29T02:19:34.679Z,0.00
2023-03-29T02:20:35.523Z,0.00
2023-03-29T02:21:36.464Z,0.00
2023-03-29T02:22:37.329Z,0.00
2023-03-29T02:23:38.214Z,0.00
2023-03-29T02:24:39.096Z,0.00
2023-03-29T02:25:39.976Z,0.00
2023-03-29T02:26:40.888Z,0.00
2023-03-29T02:27:41.740Z,0.00
2023-03-29T02:28:42.728Z,0.00
2023-03-29T02:29:43.544Z,0.00
2023-03-29T02:30:44.547Z,0.00
2023-03-29T02:31:45.027Z,0.00
2023-03-29T02:32:45.907Z,0.00
2023-03-29T02:33:46.777Z,0.00
2023-03-29T02:34:47.666Z,0.00
2023-03-29T02:35:48.629Z,0.00
2023-03-29T02:36:49.035Z,0.00
2023-03-29T02:37:49.910Z,0.00
2023-03-29T02:38:50.784Z,0.00
2023-03-29T02:39:51.664Z,0.00
2023-03-29T02:40:52.546Z,0.00
2023-03-29T02:41:53.460Z,0.00
2023-03-29T02:42:54.326Z,0.00
2023-03-29T02:43:55.205Z,0.00
2023-03-29T02:44:56.077Z,0.00
2023-03-29T02:45:56.965Z,0.00
2023-03-29T02:46:58.003Z,0.00
2023-03-29T02:47:58.436Z,0.00
2023-03-29T02:48:59.279Z,0.00
2023-03-29T02:50:00.261Z,0.00
2023-03-29T02:51:01.462Z,0.00
2023-03-29T02:52:01.936Z,0.00
2023-03-29T02:53:02.823Z,0.00
2023-03-29T02:54:03.694Z,0.00
2023-03-29T02:55:04.586Z,0.00
2023-03-29T02:56:05.460Z,0.00
2023-03-29T02:57:06.503Z,0.00
2023-03-29T02:58:06.905Z,0.00
2023-03-29T02:59:07.777Z,0.00
2023-03-29T03:00:08.660Z,0.00
2023-03-29T03:01:09.544Z,0.00
2023-03-29T03:02:10.550Z,0.00
2023-03-29T03:03:11.486Z,0.00
2023-03-29T03:04:11.963Z,0.00
2023-03-29T03:05:12.828Z,0.00
2023-03-29T03:06:13.720Z,0.00
2023-03-29T03:07:14.593Z,0.00
2023-03-29T03:08:15.482Z,0.00
2023-03-29T03:09:16.349Z,0.00
2023-03-29T03:10:17.232Z,0.00
2023-03-29T03:11:18.111Z,0.00
2023-03-29T03:12:19.025Z,0.00
2023-03-29T03:13:19.875Z,0.00
2023-03-29T03:14:20.782Z,0.00
2023-03-29T03:15:21.672Z,0.00
2023-03-29T03:16:22.540Z,0.00
2023-03-29T03:17:23.452Z,0.00
2023-03-29T03:18:24.308Z,0.00
2023-03-29T03:19:25.185Z,0.00
2023-03-29T03:20:26.071Z,0.00
2023-03-29T03:21:26.950Z,0.00
2023-03-29T03:22:27.841Z,0.00
2023-03-29T03:23:28.714Z,0.00
2023-03-29T03:24:29.598Z,0.00
2023-03-29T03:25:30.489Z,0.00
2023-03-29T03:26:31.357Z,0.00
2023-03-29T03:27:32.276Z,0.00
2023-03-29T03:28:33.146Z,0.00
2023-03-29T03:29:34.013Z,0.00
2023-03-29T03:30:34.905Z,0.00
2023-03-29T03:31:35.797Z,0.00
2023-03-29T03:32:36.434Z,0.00
2023-03-29T03:33:37.282Z,0.00
2023-03-29T03:34:38.152Z,0.00
2023-03-29T03:35:39.045Z,0.00
2023-03-29T03:36:39.917Z,0.00
2023-03-29T03:37:40.811Z,0.00
2023-03-29T03:38:41.690Z,0.00
2023-03-29T03:39:42.573Z,0.00
2023-03-29T03:40:43.536Z,0.00
2023-03-29T03:41:44.374Z,0.00
2023-03-29T03:42:45.293Z,0.00
2023-03-29T03:43:46.148Z,0.00
2023-03-29T03:44:47.026Z,0.00
2023-03-29T03:45:47.964Z,0.00
2023-03-29T03:46:48.824Z,0.00
2023-03-29T03:47:49.754Z,0.00
2023-03-29T03:48:50.593Z,0.00
2023-03-29T03:49:51.483Z,0.00
2023-03-29T03:50:52.354Z,0.00
2023-03-29T03:51:53.258Z,0.00
2023-03-29T03:52:54.136Z,0.00
2023-03-29T03:53:55.019Z,0.00
2023-03-29T03:54:55.910Z,0.00
2023-03-29T03:55:56.797Z,0.00
2023-03-29T03:56:57.740Z,0.00
2023-03-29T03:57:58.628Z,0.00
2023-03-29T03:58:59.484Z,0.00
2023-03-29T04:00:00.362Z,0.00
2023-03-29T04:01:01.421Z,0.00
2023-03-29T04:02:01.959Z,0.00
2023-03-29T04:03:02.978Z,0.00
2023-03-29T04:04:03.432Z,0.00
2023-03-29T04:05:04.300Z,0.00
2023-03-29T04:06:05.172Z,0.00
2023-03-29T04:07:06.043Z,0.00
2023-03-29T04:08:06.936Z,0.00
2023-03-29T04:09:07.806Z,0.00
2023-03-29T04:10:08.691Z,0.00
2023-03-29T04:11:09.563Z,0.00
2023-03-29T04:12:10.446Z,0.00
2023-03-29T04:13:11.358Z,0.00
2023-03-29T04:14:12.220Z,0.00
2023-03-29T04:15:13.103Z,0.00
2023-03-29T04:16:13.998Z,0.00
2023-03-29T04:17:14.874Z,0.00
2023-03-29T04:18:15.981Z,0.00
2023-03-29T04:19:16.439Z,0.00
2023-03-29T04:20:17.322Z,0.00
2023-03-29T04:21:21.173Z,0.00
2023-03-29T04:22:18.691Z,0.00
2023-03-29T04:23:19.586Z,0.00
2023-03-29T04:24:20.461Z,0.00
2023-03-29T04:25:21.338Z,0.00
2023-03-29T04:26:22.221Z,0.00
2023-03-29T04:27:23.095Z,0.00
2023-03-29T04:28:24.006Z,0.00
2023-03-29T04:29:24.869Z,0.00
2023-03-29T04:30:25.752Z,0.00
2023-03-29T04:31:26.678Z,0.00
2023-03-29T04:32:27.552Z,0.00
2023-03-29T04:33:28.430Z,0.00
2023-03-29T04:34:29.310Z,0.00
2023-03-29T04:35:30.360Z,0.00
2023-03-29T04:36:30.736Z,0.00
2023-03-29T04:37:31.624Z,0.00
2023-03-29T04:38:32.526Z,0.00
2023-03-29T04:39:33.393Z,0.00
2023-03-29T04:40:34.274Z,0.00
2023-03-29T04:41:35.158Z,0.00
2023-03-29T04:42:36.047Z,0.00
2023-03-29T04:43:39.642Z,0.00
2023-03-29T04:44:37.531Z,0.00
2023-03-29T04:45:38.343Z,1.00
2023-03-29T04:46:39.271Z,0.00
2023-03-29T04:47:40.163Z,0.00
2023-03-29T04:48:40.975Z,1.00
2023-03-29T04:49:41.805Z,1.00
2023-03-29T04:50:42.633Z,1.00
2023-03-29T04:51:43.536Z,0.00
2023-03-29T04:52:44.398Z,0.00
2023-03-29T04:53:45.285Z,0.00
2023-03-29T04:54:46.122Z,2.00
2023-03-29T04:55:46.990Z,1.00
2023-03-29T04:56:47.792Z,1.00
2023-03-29T04:57:48.608Z,2.00
2023-03-29T04:58:49.464Z,1.00
2023-03-29T04:59:50.263Z,1.00
2023-03-29T05:00:51.100Z,4.00
2023-03-29T05:01:51.958Z,5.00
2023-03-29T05:02:52.760Z,2.00
2023-03-29T05:03:53.680Z,2.00
2023-03-29T05:04:54.462Z,1.00
2023-03-29T05:05:55.289Z,1.00
2023-03-29T05:06:56.107Z,2.00
2023-03-29T05:07:56.944Z,2.00
2023-03-29T05:08:57.773Z,7.00
2023-03-29T05:09:58.591Z,8.00
2023-03-29T05:10:59.561Z,7.00
2023-03-29T05:12:00.385Z,6.00
2023-03-29T05:13:01.222Z,10.00
2023-03-29T05:14:02.082Z,10.00
2023-03-29T05:15:02.889Z,10.00
2023-03-29T05:16:03.770Z,12.00
2023-03-29T05:17:04.572Z,12.00
2023-03-29T05:18:05.397Z,11.00
2023-03-29T05:19:06.298Z,12.00
2023-03-29T05:20:07.093Z,12.00
2023-03-29T05:21:07.921Z,16.00
2023-03-29T05:22:08.738Z,13.00
2023-03-29T05:23:09.567Z,13.00
2023-03-29T05:24:10.393Z,13.00
2023-03-29T05:25:11.222Z,13.00
2023-03-29T05:26:12.039Z,14.00
2023-03-29T05:27:12.868Z,13.00
2023-03-29T05:28:13.685Z,15.00
2023-03-29T05:29:14.558Z,17.00
2023-03-29T05:30:15.390Z,17.00
2023-03-29T05:31:17.064Z,15.00
2023-03-29T05:32:17.087Z,15.00
2023-03-29T05:33:17.907Z,18.00
2023-03-29T05:34:18.752Z,20.00
2023-03-29T05:35:19.583Z,19.00
2023-03-29T05:36:20.413Z,21.00
2023-03-29T05:37:21.236Z,24.00
2023-03-29T05:38:22.056Z,26.00
2023-03-29T05:39:22.894Z,24.00
2023-03-29T05:40:23.713Z,28.00
2023-03-29T05:41:24.540Z,29.00
2023-03-29T05:42:25.358Z,34.00
2023-03-29T05:43:26.188Z,36.00
2023-03-29T05:44:27.051Z,35.00
2023-03-29T05:45:27.875Z,37.00
2023-03-29T05:46:28.667Z,37.00
2023-03-29T05:47:29.534Z,37.00
2023-03-29T05:48:30.325Z,40.00
2023-03-29T05:49:31.179Z,38.00
2023-03-29T05:50:32.001Z,38.00
2023-03-29T05:51:32.823Z,39.00
2023-03-29T05:52:33.655Z,39.00
2023-03-29T05:53:34.493Z,44.00
2023-03-29T05:54:35.312Z,40.00
2023-03-29T05:55:36.141Z,42.00
2023-03-29T05:56:36.956Z,47.00
2023-03-29T05:57:37.791Z,47.00
2023-03-29T05:58:38.603Z,53.00
2023-03-29T05:59:39.468Z,52.00
2023-03-29T06:00:40.271Z,57.00
2023-03-29T06:01:41.100Z,57.00
2023-03-29T06:02:42.005Z,60.00
2023-03-29T06:03:43.006Z,66.00
2023-03-29T06:04:43.436Z,67.00
2023-03-29T06:05:44.240Z,72.00
2023-03-29T06:06:45.067Z,70.00
2023-03-29T06:07:45.896Z,75.00
2023-03-29T06:08:46.740Z,74.00
2023-03-29T06:09:47.572Z,75.00
2023-03-29T06:10:48.394Z,71.00
2023-03-29T06:11:49.218Z,65.00
2023-03-29T06:12:50.034Z,63.00
2023-03-29T06:13:50.861Z,63.00
2023-03-29T06:14:51.730Z,70.00
2023-03-29T06:15:52.566Z,75.00
2023-03-29T06:16:53.433Z,71.00
2023-03-29T06:17:54.254Z,74.00
2023-03-29T06:18:55.051Z,81.00
2023-03-29T06:19:55.894Z,91.00
2023-03-29T06:20:56.712Z,89.00
2023-03-29T06:21:57.540Z,93.00
2023-03-29T06:22:58.360Z,101.00
2023-03-29T06:23:59.185Z,115.00
2023-03-29T06:25:00.129Z,123.00
2023-03-29T06:26:00.903Z,130.00
2023-03-29T06:27:01.723Z,121.00
2023-03-29T06:28:02.557Z,116.00
2023-03-29T06:29:03.370Z,112.00
2023-03-29T06:30:04.232Z,96.00
2023-03-29T06:31:05.286Z,93.00
2023-03-29T06:32:05.573Z,102.00
2023-03-29T06:33:06.449Z,97.00
2023-03-29T06:34:07.224Z,108.00
2023-03-29T06:35:08.052Z,113.00
2023-03-29T06:36:08.892Z,124.00
2023-03-29T06:37:09.709Z,132.00
2023-03-29T06:38:10.537Z,120.00
2023-03-29T06:39:11.359Z,110.00
2023-03-29T06:40:12.195Z,112.00
2023-03-29T06:41:13.024Z,113.00
2023-03-29T06:42:21.128Z,116.00
2023-03-29T06:43:15.560Z,118.00
2023-03-29T06:44:15.383Z,127.00
2023-03-29T06:45:16.302Z,131.00
2023-03-29T06:46:17.175Z,142.00
2023-03-29T06:47:18.002Z,157.00
2023-03-29T06:48:18.828Z,160.00
2023-03-29T06:49:19.656Z,161.00
2023-03-29T06:50:20.500Z,166.00
2023-03-29T06:51:23.291Z,156.00
2023-03-29T06:52:22.299Z,142.00
2023-03-29T06:53:23.121Z,146.00
2023-03-29T06:54:23.948Z,151.00
2023-03-29T06:55:24.782Z,145.00
2023-03-29T06:56:25.618Z,148.00
2023-03-29T06:57:26.460Z,151.00
2023-03-29T06:58:27.254Z,145.00
2023-03-29T06:59:28.083Z,148.00
2023-03-29T07:00:28.950Z,137.00
2023-03-29T07:01:29.764Z,130.00
2023-03-29T07:02:30.582Z,132.00
2023-03-29T07:03:31.448Z,129.00
2023-03-29T07:04:32.346Z,129.00
2023-03-29T07:05:33.165Z,127.00
2023-03-29T07:06:34.003Z,118.00
2023-03-29T07:07:34.812Z,120.00
2023-03-29T07:08:35.648Z,150.00
2023-03-29T07:09:36.458Z,148.00
2023-03-29T07:10:37.307Z,162.00
2023-03-29T07:11:38.135Z,196.00
2023-03-29T07:12:38.954Z,197.00
2023-03-29T07:13:39.772Z,210.00
2023-03-29T07:14:40.604Z,214.00
2023-03-29T07:15:41.482Z,181.00
2023-03-29T07:16:42.327Z,161.00
2023-03-29T07:17:43.264Z,187.00
2023-03-29T07:18:44.134Z,212.00
2023-03-29T07:19:44.948Z,208.00
2023-03-29T07:20:45.774Z,202.00
2023-03-29T07:21:46.614Z,200.00
2023-03-29T07:22:47.430Z,203.00
2023-03-29T07:23:48.266Z,215.00
2023-03-29T07:24:49.090Z,217.00
2023-03-29T07:25:49.917Z,239.00
2023-03-29T07:27:03.418Z,262.00
2023-03-29T07:27:52.470Z,266.00
2023-03-29T07:28:52.287Z,258.00
2023-03-29T07:29:53.102Z,277.00
2023-03-29T07:30:53.960Z,276.00
2023-03-29T07:31:54.757Z,287.00
2023-03-29T07:32:55.673Z,299.00
2023-03-29T07:33:56.585Z,308.00
2023-03-29T07:34:57.393Z,310.00
2023-03-29T07:35:58.243Z,316.00
2023-03-29T07:36:59.060Z,327.00
2023-03-29T07:37:59.892Z,330.00
2023-03-29T07:39:00.720Z,308.00
2023-03-29T07:40:01.533Z,301.00
2023-03-29T07:41:02.624Z,305.00
2023-03-29T07:42:03.106Z,298.00
2023-03-29T07:43:03.927Z,288.00
2023-03-29T07:44:04.754Z,292.00
2023-03-29T07:45:05.579Z,296.00
2023-03-29T07:46:06.503Z,284.00
2023-03-29T07:47:07.334Z,288.00
2023-03-29T07:48:08.237Z,300.00
2023-03-29T07:49:09.049Z,305.00
2023-03-29T07:50:09.885Z,304.00
2023-03-29T07:51:10.719Z,314.00
2023-03-29T07:52:11.543Z,323.00
2023-03-29T07:53:12.352Z,339.00
2023-03-29T07:54:13.190Z,334.00
2023-03-29T07:55:14.006Z,311.00
2023-03-29T07:56:14.849Z,280.00
2023-03-29T07:57:15.715Z,266.00
2023-03-29T07:58:16.536Z,284.00
2023-03-29T07:59:17.353Z,312.00
2023-03-29T08:00:18.254Z,336.00
2023-03-29T08:01:19.788Z,354.00
2023-03-29T08:02:19.811Z,357.00
2023-03-29T08:03:20.731Z,353.00
2023-03-29T08:04:21.679Z,337.00
2023-03-29T08:05:37.770Z,340.00
2023-03-29T08:06:24.278Z,335.00
2023-03-29T08:07:24.106Z,339.00
2023-03-29T08:08:24.932Z,336.00
2023-03-29T08:09:25.755Z,350.00
2023-03-29T08:10:26.597Z,372.00
2023-03-29T08:11:27.434Z,426.00
2023-03-29T08:12:28.249Z,458.00
2023-03-29T08:13:29.082Z,420.00
2023-03-29T08:14:29.909Z,371.00
2023-03-29T08:15:30.763Z,350.00
2023-03-29T08:16:31.673Z,338.00
2023-03-29T08:17:32.498Z,361.00
2023-03-29T08:18:34.718Z,400.00
2023-03-29T08:19:34.291Z,438.00
2023-03-29T08:20:35.106Z,444.00
2023-03-29T08:21:35.927Z,420.00
2023-03-29T08:22:36.763Z,404.00
2023-03-29T08:23:37.569Z,412.00
2023-03-29T08:24:38.407Z,403.00
2023-03-29T08:25:39.225Z,379.00
2023-03-29T08:26:40.064Z,351.00
2023-03-29T08:27:40.906Z,322.00
2023-03-29T08:28:41.727Z,316.00
2023-03-29T08:29:42.538Z,325.00
2023-03-29T08:30:43.398Z,338.00
2023-03-29T08:31:44.209Z,352.00
2023-03-29T08:32:46.956Z,377.00
2023-03-29T08:33:45.990Z,384.00
2023-03-29T08:34:46.795Z,376.00
2023-03-29T08:35:47.654Z,383.00
2023-03-29T08:36:48.462Z,390.00
2023-03-29T08:37:49.275Z,373.00
2023-03-29T08:38:50.101Z,382.00
2023-03-29T08:39:50.931Z,397.00
2023-03-29T08:40:51.782Z,411.00
2023-03-29T08:41:52.596Z,397.00
2023-03-29T08:42:53.418Z,370.00
2023-03-29T08:43:54.237Z,355.00
2023-03-29T08:44:55.063Z,354.00
2023-03-29T08:45:55.933Z,365.00
2023-03-29T08:46:56.799Z,378.00
2023-03-29T08:47:57.603Z,403.00
2023-03-29T08:48:58.442Z,420.00
2023-03-29T08:49:59.257Z,421.00
2023-03-29T08:51:00.232Z,388.00
2023-03-29T08:52:01.087Z,388.00
2023-03-29T08:53:01.909Z,415.00
2023-03-29T08:54:02.750Z,427.00
2023-03-29T08:55:03.574Z,446.00
2023-03-29T08:56:04.419Z,441.00
2023-03-29T08:57:05.287Z,407.00
2023-03-29T08:58:06.070Z,392.00
2023-03-29T08:59:06.897Z,414.00
2023-03-29T09:00:07.716Z,441.00
2023-03-29T09:01:08.574Z,407.00
2023-03-29T09:02:09.499Z,348.00
2023-03-29T09:03:10.377Z,311.00
2023-03-29T09:04:11.222Z,355.00
2023-03-29T09:05:12.055Z,440.00
2023-03-29T09:06:12.873Z,567.00
2023-03-29T09:07:13.703Z,577.00
2023-03-29T09:08:14.521Z,528.00
2023-03-29T09:09:15.348Z,535.00
2023-03-29T09:10:16.182Z,558.00
2023-03-29T09:11:17.016Z,564.00
2023-03-29T09:12:17.840Z,505.00
2023-03-29T09:13:18.714Z,539.00
2023-03-29T09:14:19.492Z,623.00
2023-03-29T09:15:20.496Z,645.00
2023-03-29T09:16:21.365Z,629.00
2023-03-29T09:17:22.185Z,600.00
2023-03-29T09:18:22.989Z,576.00
2023-03-29T09:19:23.803Z,556.00
2023-03-29T09:20:24.627Z,568.00
2023-03-29T09:21:25.463Z,615.00
2023-03-29T09:22:26.291Z,698.00
2023-03-29T09:23:27.122Z,719.00
2023-03-29T09:24:27.951Z,638.00
2023-03-29T09:25:28.774Z,573.00
2023-03-29T09:26:29.609Z,520.00
2023-03-29T09:27:30.592Z,458.00
2023-03-29T09:28:31.366Z,408.00
2023-03-29T09:29:32.191Z,420.00
2023-03-29T09:30:33.013Z,413.00
2023-03-29T09:31:33.882Z,372.00
2023-03-29T09:32:34.742Z,362.00
2023-03-29T09:33:35.568Z,416.00
2023-03-29T09:34:36.385Z,494.00
2023-03-29T09:35:37.318Z,554.00
2023-03-29T09:36:38.119Z,572.00
2023-03-29T09:37:38.945Z,566.00
2023-03-29T09:38:39.919Z,546.00
2023-03-29T09:39:40.718Z,513.00
2023-03-29T09:40:41.514Z,488.00
2023-03-29T09:41:42.353Z,470.00
2023-03-29T09:42:43.172Z,456.00
2023-03-29T09:43:44.025Z,499.00
2023-03-29T09:44:44.843Z,588.00
2023-03-29T09:45:45.671Z,664.00
2023-03-29T09:46:46.481Z,637.00
2023-03-29T09:47:47.353Z,630.00
2023-03-29T09:48:48.155Z,741.00
2023-03-29T09:49:48.996Z,813.00
2023-03-29T09:50:49.802Z,765.00
2023-03-29T09:51:50.331Z,744.00
2023-03-29T09:52:51.157Z,687.00
2023-03-29T09:53:51.981Z,651.00
2023-03-29T09:54:52.808Z,701.00
2023-03-29T09:55:53.637Z,729.00
2023-03-29T09:56:54.518Z,803.00
2023-03-29T09:57:55.304Z,887.00
2023-03-29T09:58:56.140Z,827.00
2023-03-29T09:59:56.961Z,748.00
2023-03-29T10:00:57.786Z,692.00
2023-03-29T10:01:58.620Z,673.00
2023-03-29T10:02:59.517Z,680.00
2023-03-29T10:04:00.308Z,707.00
2023-03-29T10:05:01.208Z,647.00
2023-03-29T10:06:02.060Z,682.00
2023-03-29T10:07:02.894Z,702.00
2023-03-29T10:08:03.722Z,743.00
2023-03-29T10:09:04.561Z,811.00
2023-03-29T10:10:05.373Z,862.00
2023-03-29T10:11:06.187Z,942.00
2023-03-29T10:12:07.036Z,963.00
2023-03-29T10:13:07.846Z,1040.00
2023-03-29T10:14:08.673Z,1145.00
2023-03-29T10:15:16.754Z,1239.00
2023-03-29T10:16:11.246Z,1319.00
2023-03-29T10:17:11.082Z,1180.00
2023-03-29T10:18:11.951Z,1049.00
2023-03-29T10:19:12.734Z,1091.00
2023-03-29T10:20:13.571Z,941.00
2023-03-29T10:21:14.382Z,1273.00
2023-03-29T10:22:15.218Z,1446.00
2023-03-29T10:23:16.052Z,1197.00
2023-03-29T10:24:16.874Z,1383.00
2023-03-29T10:25:17.710Z,1152.00
2023-03-29T10:26:18.521Z,1212.00
2023-03-29T10:27:19.356Z,859.00
2023-03-29T10:28:20.180Z,1114.00
2023-03-29T10:29:20.997Z,1145.00
2023-03-29T10:30:21.828Z,1209.00
2023-03-29T10:31:22.739Z,1317.00
2023-03-29T10:32:23.603Z,966.00
2023-03-29T10:33:24.417Z,1248.00
2023-03-29T10:34:25.235Z,1273.00
2023-03-29T10:35:26.046Z,1287.00
2023-03-29T10:36:26.870Z,1386.00
2023-03-29T10:37:27.711Z,1105.00
2023-03-29T10:38:28.565Z,1210.00
2023-03-29T10:39:29.374Z,1082.00
2023-03-29T10:40:30.181Z,1192.00
2023-03-29T10:41:31.003Z,1257.00
2023-03-29T10:42:31.847Z,1517.00
2023-03-29T10:43:32.687Z,1333.00
2023-03-29T10:44:33.529Z,1268.00
2023-03-29T10:45:34.340Z,1507.00
2023-03-29T10:46:35.224Z,1120.00
2023-03-29T10:47:36.025Z,1216.00
2023-03-29T10:48:36.866Z,1340.00
2023-03-29T10:49:37.693Z,1341.00
2023-03-29T10:50:38.489Z,1223.00
2023-03-29T10:51:39.314Z,982.00
2023-03-29T10:52:40.147Z,986.00
2023-03-29T10:53:40.966Z,1049.00
2023-03-29T10:54:41.794Z,1326.00
2023-03-29T10:55:42.611Z,1275.00
2023-03-29T10:56:43.452Z,1305.00
2023-03-29T10:57:44.273Z,1313.00
2023-03-29T10:58:45.096Z,1235.00
2023-03-29T10:59:45.924Z,1226.00
2023-03-29T11:00:46.752Z,1245.00
2023-03-29T11:01:47.627Z,1264.00
2023-03-29T11:02:48.553Z,1276.00
2023-03-29T11:03:49.469Z,1259.00
2023-03-29T11:04:50.292Z,1362.00
2023-03-29T11:05:51.111Z,1425.00
2023-03-29T11:06:51.938Z,1414.00
2023-03-29T11:07:52.775Z,1355.00
2023-03-29T11:08:53.596Z,1187.00
2023-03-29T11:09:54.429Z,1448.00
2023-03-29T11:10:55.256Z,977.00
2023-03-29T11:12:08.284Z,1333.00
2023-03-29T11:12:57.808Z,1068.00
2023-03-29T11:13:59.425Z,1049.00
2023-03-29T11:14:58.290Z,1073.00
2023-03-29T11:15:59.132Z,1069.00
2023-03-29T11:16:59.939Z,1055.00
2023-03-29T11:18:00.775Z,1249.00
2023-03-29T11:19:01.637Z,1287.00
2023-03-29T11:20:04.914Z,1196.00
2023-03-29T11:21:03.197Z,1020.00
2023-03-29T11:22:03.655Z,1120.00
2023-03-29T11:23:04.502Z,1060.00
2023-03-29T11:24:05.309Z,989.00
2023-03-29T11:25:06.133Z,1037.00
2023-03-29T11:26:06.953Z,1013.00
2023-03-29T11:27:07.784Z,1039.00
2023-03-29T11:28:08.612Z,1000.00
2023-03-29T11:29:09.450Z,1014.00
2023-03-29T11:30:10.261Z,1033.00
2023-03-29T11:31:11.220Z,1050.00
2023-03-29T11:32:12.015Z,1098.00
2023-03-29T11:33:12.854Z,1086.00
2023-03-29T11:34:13.706Z,1091.00
2023-03-29T11:35:14.504Z,1216.00
2023-03-29T11:36:15.358Z,1136.00
2023-03-29T11:37:16.150Z,1168.00
2023-03-29T11:38:16.987Z,1133.00
2023-03-29T11:39:17.832Z,1073.00
2023-03-29T11:40:18.634Z,1009.00
2023-03-29T11:41:19.465Z,1195.00
2023-03-29T11:42:20.297Z,1156.00
2023-03-29T11:43:21.132Z,1088.00
2023-03-29T11:44:21.956Z,1033.00
2023-03-29T11:45:22.781Z,1030.00
2023-03-29T11:46:23.688Z,1056.00
2023-03-29T11:47:24.522Z,1003.00
2023-03-29T11:48:25.327Z,1119.00
2023-03-29T11:49:26.173Z,1132.00
2023-03-29T11:50:26.979Z,1140.00
2023-03-29T11:51:27.802Z,1042.00
2023-03-29T11:52:28.616Z,1317.00
2023-03-29T11:53:29.457Z,1518.00
2023-03-29T11:54:30.284Z,1177.00
2023-03-29T11:55:31.114Z,1420.00
2023-03-29T11:56:31.931Z,1476.00
2023-03-29T11:57:32.764Z,1560.00
2023-03-29T11:58:34.521Z,1823.00
2023-03-29T11:59:34.229Z,1221.00
2023-03-29T12:00:35.053Z,1579.00
2023-03-29T12:01:35.867Z,1850.00
2023-03-29T12:02:36.774Z,1692.00
2023-03-29T12:03:37.713Z,1272.00
2023-03-29T12:04:38.597Z,1315.00
2023-03-29T12:05:39.382Z,1431.00
2023-03-29T12:06:40.209Z,1403.00
2023-03-29T12:07:41.050Z,1317.00
2023-03-29T12:08:41.869Z,970.00
2023-03-29T12:09:42.693Z,1023.00
2023-03-29T12:10:43.521Z,1007.00
2023-03-29T12:11:44.694Z,898.00
2023-03-29T12:12:45.010Z,854.00
2023-03-29T12:13:45.841Z,657.00
2023-03-29T12:14:46.671Z,1356.00
2023-03-29T12:15:47.510Z,1398.00
2023-03-29T12:16:48.451Z,1626.00
2023-03-29T12:17:49.327Z,1655.00
2023-03-29T12:18:50.139Z,1274.00
2023-03-29T12:19:50.986Z,1802.00
2023-03-29T12:20:51.792Z,1838.00
2023-03-29T12:21:52.615Z,1079.00
2023-03-29T12:22:53.450Z,1766.00
2023-03-29T12:23:54.270Z,1455.00
2023-03-29T12:24:55.118Z,2072.00
2023-03-29T12:25:56.016Z,395.00
2023-03-29T12:26:56.802Z,1513.00
2023-03-29T12:27:57.642Z,1299.00
2023-03-29T12:28:58.511Z,1690.00
2023-03-29T12:29:59.466Z,1860.00
2023-03-29T12:31:00.353Z,1595.00
2023-03-29T12:32:01.267Z,1805.00
2023-03-29T12:33:02.124Z,2039.00
2023-03-29T12:34:02.961Z,928.00
2023-03-29T12:35:03.815Z,428.00
2023-03-29T12:36:04.669Z,2196.00
2023-03-29T12:37:05.522Z,1503.00
2023-03-29T12:38:06.347Z,1028.00
2023-03-29T12:39:07.158Z,989.00
2023-03-29T12:40:07.990Z,833.00
2023-03-29T12:41:08.804Z,899.00
2023-03-29T12:42:09.631Z,767.00
2023-03-29T12:43:10.470Z,372.00
2023-03-29T12:44:11.311Z,742.00
2023-03-29T12:45:12.159Z,1425.00
2023-03-29T12:46:13.044Z,1727.00
2023-03-29T12:47:13.816Z,1697.00
2023-03-29T12:48:14.638Z,1640.00
2023-03-29T12:49:15.500Z,759.00
2023-03-29T12:50:16.334Z,662.00
2023-03-29T12:51:17.155Z,490.00
2023-03-29T12:52:17.970Z,742.00
2023-03-29T12:53:18.801Z,1092.00
2023-03-29T12:54:19.634Z,755.00
2023-03-29T12:55:20.479Z,766.00
2023-03-29T12:56:21.294Z,780.00